createdAt,value
2022-09-26T00:00:13.081Z,4.18
2022-09-26T00:01:13.076Z,4.16
2022-09-26T00:02:13.072Z,4.16
2022-09-26T00:03:13.024Z,4.15
2022-09-26T00:04:13.031Z,4.14
2022-09-26T00:05:13.033Z,4.14
2022-09-26T00:06:13.076Z,4.12
2022-09-26T00:07:12.960Z,4.11
2022-09-26T00:08:12.961Z,4.11
2022-09-26T00:09:13.036Z,4.08
2022-09-26T00:10:12.939Z,4.08
2022-09-26T00:11:12.939Z,4.08
2022-09-26T00:12:12.933Z,4.06
2022-09-26T00:13:12.975Z,4.05
2022-09-26T00:14:12.919Z,4.05
2022-09-26T00:15:12.880Z,4.06
2022-09-26T00:16:12.943Z,4.06
2022-09-26T00:17:12.915Z,4.09
2022-09-26T00:18:12.847Z,4.09
2022-09-26T00:19:12.971Z,4.11
2022-09-26T00:20:12.832Z,4.11
2022-09-26T00:21:12.866Z,4.14
2022-09-26T00:22:12.884Z,4.14
2022-09-26T00:23:12.778Z,4.14
2022-09-26T00:24:13.280Z,4.16
2022-09-26T00:25:13.248Z,4.18
2022-09-26T00:26:12.814Z,4.18
2022-09-26T00:27:12.752Z,4.16
2022-09-26T00:28:12.873Z,4.18
2022-09-26T00:29:12.827Z,4.20
2022-09-26T00:30:12.717Z,4.16
2022-09-26T00:31:12.735Z,4.18
2022-09-26T00:32:12.696Z,4.16
2022-09-26T00:33:12.666Z,4.20
2022-09-26T00:34:12.687Z,4.18
2022-09-26T00:35:12.659Z,4.18
2022-09-26T00:36:12.656Z,4.22
2022-09-26T00:37:12.626Z,4.22
2022-09-26T00:38:12.631Z,4.23
2022-09-26T00:39:12.679Z,4.24
2022-09-26T00:40:12.662Z,4.26
2022-09-26T00:41:12.587Z,4.29
2022-09-26T00:42:12.577Z,4.32
2022-09-26T00:43:12.567Z,4.33
2022-09-26T00:44:13.417Z,4.33
2022-09-26T00:45:12.536Z,4.34
2022-09-26T00:46:12.590Z,4.36
2022-09-26T00:47:12.516Z,4.34
2022-09-26T00:48:12.511Z,4.36
2022-09-26T00:49:12.524Z,4.37
2022-09-26T00:50:12.496Z,4.37
2022-09-26T00:51:12.465Z,4.40
2022-09-26T00:52:12.491Z,4.42
2022-09-26T00:53:12.453Z,4.42
2022-09-26T00:54:12.448Z,4.44
2022-09-26T00:55:12.424Z,4.45
2022-09-26T00:56:12.444Z,4.47
2022-09-26T00:57:12.395Z,4.48
2022-09-26T00:58:12.406Z,4.51
2022-09-26T00:59:12.454Z,4.51
2022-09-26T01:00:12.398Z,4.51
2022-09-26T01:01:12.430Z,4.52
2022-09-26T01:02:12.418Z,4.54
2022-09-26T01:03:12.335Z,4.54
2022-09-26T01:04:13.240Z,4.55
2022-09-26T01:05:12.396Z,4.58
2022-09-26T01:06:12.322Z,4.59
2022-09-26T01:07:12.294Z,4.59
2022-09-26T01:08:12.294Z,4.59
2022-09-26T01:09:12.341Z,4.60
2022-09-26T01:10:12.377Z,4.62
2022-09-26T01:11:16.650Z,4.63
2022-09-26T01:12:12.254Z,4.63
2022-09-26T01:13:12.230Z,4.63
2022-09-26T01:14:12.228Z,4.66
2022-09-26T01:15:12.203Z,4.66
2022-09-26T01:16:12.246Z,4.67
2022-09-26T01:17:12.191Z,4.67
2022-09-26T01:18:12.191Z,4.69
2022-09-26T01:19:12.191Z,4.69
2022-09-26T01:20:12.162Z,4.67
2022-09-26T01:21:12.166Z,4.66
2022-09-26T01:22:12.186Z,4.67
2022-09-26T01:23:12.112Z,4.69
2022-09-26T01:24:12.111Z,4.69
2022-09-26T01:25:12.126Z,4.67
2022-09-26T01:26:12.154Z,4.69
2022-09-26T01:27:12.071Z,4.70
2022-09-26T01:28:12.080Z,4.70
2022-09-26T01:29:12.148Z,4.70
2022-09-26T01:30:12.052Z,4.70
2022-09-26T01:31:12.124Z,4.72
2022-09-26T01:32:12.032Z,4.69
2022-09-26T01:33:12.021Z,4.70
2022-09-26T01:34:12.011Z,4.70
2022-09-26T01:35:11.982Z,4.72
2022-09-26T01:36:12.151Z,4.72
2022-09-26T01:37:12.001Z,4.73
2022-09-26T01:38:11.963Z,4.73
2022-09-26T01:39:12.010Z,4.72
2022-09-26T01:40:11.979Z,4.73
2022-09-26T01:41:11.911Z,4.73
2022-09-26T01:42:11.930Z,4.75
2022-09-26T01:43:11.914Z,4.75
2022-09-26T01:44:11.901Z,4.73
2022-09-26T01:45:12.621Z,4.73
2022-09-26T01:46:11.959Z,4.73
2022-09-26T01:47:11.888Z,4.72
2022-09-26T01:48:11.839Z,4.70
2022-09-26T01:49:11.898Z,4.67
2022-09-26T01:50:11.810Z,4.66
2022-09-26T01:51:11.848Z,4.65
2022-09-26T01:52:11.790Z,4.62
2022-09-26T01:53:11.801Z,4.59
2022-09-26T01:54:11.780Z,4.60
2022-09-26T01:55:11.770Z,4.62
2022-09-26T01:56:11.751Z,4.62
2022-09-26T01:57:11.811Z,4.63
2022-09-26T01:58:11.755Z,4.65
2022-09-26T01:59:11.776Z,4.65
2022-09-26T02:00:11.719Z,4.65
2022-09-26T02:01:11.770Z,4.67
2022-09-26T02:02:11.745Z,4.69
2022-09-26T02:03:11.687Z,4.69
2022-09-26T02:04:11.941Z,4.69
2022-09-26T02:05:12.491Z,4.66
2022-09-26T02:06:12.406Z,4.63
2022-09-26T02:07:11.651Z,4.63
2022-09-26T02:08:11.617Z,4.62
2022-09-26T02:09:11.666Z,4.59
2022-09-26T02:10:11.610Z,4.58
2022-09-26T02:11:11.609Z,4.55
2022-09-26T02:12:11.568Z,4.52
2022-09-26T02:13:11.578Z,4.52
2022-09-26T02:14:11.548Z,4.50
2022-09-26T02:15:11.579Z,4.50
2022-09-26T02:16:11.578Z,4.48
2022-09-26T02:17:11.536Z,4.48
2022-09-26T02:18:11.538Z,4.48
2022-09-26T02:19:11.574Z,4.51
2022-09-26T02:20:11.486Z,4.52
2022-09-26T02:21:11.489Z,4.54
2022-09-26T02:22:11.489Z,4.55
2022-09-26T02:23:12.040Z,4.58
2022-09-26T02:24:11.449Z,4.60
2022-09-26T02:25:11.448Z,4.63
2022-09-26T02:26:12.157Z,4.67
2022-09-26T02:27:12.171Z,4.70
2022-09-26T02:28:11.398Z,4.72
2022-09-26T02:29:11.446Z,4.73
2022-09-26T02:30:11.376Z,4.77
2022-09-26T02:31:11.420Z,4.78
2022-09-26T02:32:11.393Z,4.80
2022-09-26T02:33:11.356Z,4.82
2022-09-26T02:34:11.339Z,4.85
2022-09-26T02:35:11.343Z,4.85
2022-09-26T02:36:11.306Z,4.86
2022-09-26T02:37:11.313Z,4.88
2022-09-26T02:38:11.284Z,4.91
2022-09-26T02:39:11.303Z,4.91
2022-09-26T02:40:11.322Z,4.91
2022-09-26T02:41:11.267Z,4.96
2022-09-26T02:42:11.246Z,4.99
2022-09-26T02:43:11.236Z,5.00
2022-09-26T02:44:11.215Z,5.02
2022-09-26T02:45:11.245Z,5.03
2022-09-26T02:46:11.268Z,5.04
2022-09-26T02:47:11.237Z,5.07
2022-09-26T02:48:11.184Z,5.10
2022-09-26T02:49:11.183Z,5.15
2022-09-26T02:50:11.155Z,5.17
2022-09-26T02:51:11.159Z,5.20
2022-09-26T02:52:11.136Z,5.22
2022-09-26T02:53:11.143Z,5.24
2022-09-26T02:54:11.104Z,5.27
2022-09-26T02:55:11.193Z,5.28
2022-09-26T02:56:11.094Z,5.30
2022-09-26T02:57:11.093Z,5.33
2022-09-26T02:58:11.075Z,5.36
2022-09-26T02:59:11.075Z,5.39
2022-09-26T03:00:11.034Z,5.40
2022-09-26T03:01:11.110Z,5.43
2022-09-26T03:02:11.023Z,5.42
2022-09-26T03:03:11.043Z,5.45
2022-09-26T03:04:11.013Z,5.46
2022-09-26T03:05:11.073Z,5.45
2022-09-26T03:06:10.973Z,5.46
2022-09-26T03:07:10.993Z,5.46
2022-09-26T03:08:11.813Z,5.49
2022-09-26T03:09:10.995Z,5.48
2022-09-26T03:10:10.936Z,5.48
2022-09-26T03:11:10.948Z,5.49
2022-09-26T03:12:10.903Z,5.51
2022-09-26T03:13:10.914Z,5.54
2022-09-26T03:14:10.893Z,5.54
2022-09-26T03:15:10.894Z,5.56
2022-09-26T03:16:10.918Z,5.57
2022-09-26T03:17:10.872Z,5.58
2022-09-26T03:18:10.843Z,5.60
2022-09-26T03:19:10.846Z,5.63
2022-09-26T03:20:10.822Z,5.64
2022-09-26T03:21:10.833Z,5.63
2022-09-26T03:22:10.791Z,5.64
2022-09-26T03:23:10.981Z,5.61
2022-09-26T03:24:10.772Z,5.61
2022-09-26T03:25:10.802Z,5.63
2022-09-26T03:26:10.751Z,5.63
2022-09-26T03:27:10.802Z,5.63
2022-09-26T03:28:11.696Z,5.65
2022-09-26T03:29:11.622Z,5.68
2022-09-26T03:30:10.720Z,5.68
2022-09-26T03:31:10.712Z,5.71
2022-09-26T03:32:10.779Z,5.71
2022-09-26T03:33:10.682Z,5.74
2022-09-26T03:34:10.691Z,5.74
2022-09-26T03:35:10.673Z,5.72
2022-09-26T03:36:10.642Z,5.74
2022-09-26T03:37:10.639Z,5.74
2022-09-26T03:38:14.248Z,5.74
2022-09-26T03:39:10.622Z,5.72
2022-09-26T03:40:10.621Z,5.74
2022-09-26T03:41:10.611Z,5.75
2022-09-26T03:42:10.570Z,5.74
2022-09-26T03:43:10.581Z,5.75
2022-09-26T03:44:10.550Z,5.76
2022-09-26T03:45:10.558Z,5.76
2022-09-26T03:46:10.591Z,5.78
2022-09-26T03:47:10.533Z,5.79
2022-09-26T03:48:10.520Z,5.79
2022-09-26T03:49:11.339Z,5.79
2022-09-26T03:50:10.490Z,5.78
2022-09-26T03:51:10.942Z,5.78
2022-09-26T03:52:10.470Z,5.78
2022-09-26T03:53:10.470Z,5.79
2022-09-26T03:54:10.439Z,5.79
2022-09-26T03:55:10.449Z,5.81
2022-09-26T03:56:10.611Z,5.83
2022-09-26T03:57:10.440Z,5.83
2022-09-26T03:58:10.399Z,5.86
2022-09-26T03:59:10.400Z,5.86
2022-09-26T04:00:10.415Z,5.90
2022-09-26T04:01:10.495Z,5.90
2022-09-26T04:02:10.389Z,5.93
2022-09-26T04:03:10.375Z,5.94
2022-09-26T04:04:10.330Z,5.94
2022-09-26T04:05:10.331Z,5.93
2022-09-26T04:06:10.308Z,5.94
2022-09-26T04:07:10.306Z,5.93
2022-09-26T04:08:11.178Z,5.93
2022-09-26T04:09:15.878Z,5.94
2022-09-26T04:10:11.269Z,5.94
2022-09-26T04:11:10.278Z,5.93
2022-09-26T04:12:10.227Z,5.93
2022-09-26T04:13:10.239Z,5.94
2022-09-26T04:14:10.259Z,5.96
2022-09-26T04:15:10.220Z,5.97
2022-09-26T04:16:10.212Z,5.96
2022-09-26T04:17:10.187Z,5.96
2022-09-26T04:18:10.158Z,5.96
2022-09-26T04:19:10.173Z,5.97
2022-09-26T04:20:10.188Z,5.99
2022-09-26T04:21:10.303Z,5.97
2022-09-26T04:22:10.119Z,5.96
2022-09-26T04:23:10.125Z,5.96
2022-09-26T04:24:10.097Z,5.94
2022-09-26T04:25:10.105Z,5.94
2022-09-26T04:26:10.067Z,5.96
2022-09-26T04:27:10.106Z,5.96
2022-09-26T04:28:10.046Z,5.97
2022-09-26T04:29:10.171Z,6.00
2022-09-26T04:30:10.170Z,6.03
2022-09-26T04:31:10.065Z,6.03
2022-09-26T04:32:10.005Z,6.04
2022-09-26T04:33:10.015Z,6.03
2022-09-26T04:34:09.966Z,6.04
2022-09-26T04:35:09.995Z,6.04
2022-09-26T04:36:09.966Z,6.03
2022-09-26T04:37:09.966Z,6.04
2022-09-26T04:38:09.936Z,6.04
2022-09-26T04:39:09.936Z,6.04
2022-09-26T04:40:09.906Z,6.03
2022-09-26T04:41:09.963Z,6.01
2022-09-26T04:42:10.062Z,6.01
2022-09-26T04:43:09.905Z,6.01
2022-09-26T04:44:09.876Z,6.00
2022-09-26T04:45:09.876Z,6.00
2022-09-26T04:46:09.905Z,6.00
2022-09-26T04:47:09.853Z,5.99
2022-09-26T04:48:09.815Z,5.99
2022-09-26T04:49:10.572Z,5.99
2022-09-26T04:50:09.830Z,6.01
2022-09-26T04:51:10.224Z,5.99
2022-09-26T04:52:09.790Z,5.97
2022-09-26T04:53:10.233Z,5.96
2022-09-26T04:54:09.745Z,5.94
2022-09-26T04:55:09.753Z,5.96
2022-09-26T04:56:09.725Z,5.94
2022-09-26T04:57:10.074Z,5.93
2022-09-26T04:58:09.695Z,5.91
2022-09-26T04:59:09.732Z,5.91
2022-09-26T05:00:09.677Z,5.91
2022-09-26T05:01:09.734Z,5.91
2022-09-26T05:02:09.742Z,5.91
2022-09-26T05:03:09.664Z,5.90
2022-09-26T05:04:09.634Z,5.85
2022-09-26T05:05:09.704Z,5.86
2022-09-26T05:06:09.734Z,5.83
2022-09-26T05:07:09.611Z,5.82
2022-09-26T05:08:09.637Z,5.83
2022-09-26T05:09:09.687Z,5.82
2022-09-26T05:10:10.392Z,5.83
2022-09-26T05:11:09.595Z,5.83
2022-09-26T05:12:09.773Z,5.83
2022-09-26T05:13:09.547Z,5.83
2022-09-26T05:14:09.534Z,5.83
2022-09-26T05:15:09.550Z,5.86
2022-09-26T05:16:09.519Z,5.89
2022-09-26T05:17:09.505Z,5.90
2022-09-26T05:18:09.475Z,5.91
2022-09-26T05:19:09.545Z,5.91
2022-09-26T05:20:09.452Z,5.93
2022-09-26T05:21:09.908Z,5.93
2022-09-26T05:22:09.426Z,5.96
2022-09-26T05:23:10.382Z,5.97
2022-09-26T05:24:09.420Z,6.00
2022-09-26T05:25:09.413Z,6.01
2022-09-26T05:26:09.394Z,6.03
2022-09-26T05:27:09.392Z,6.04
2022-09-26T05:28:09.361Z,6.06
2022-09-26T05:29:09.559Z,6.09
2022-09-26T05:30:09.342Z,6.08
2022-09-26T05:31:10.173Z,6.12
2022-09-26T05:32:09.799Z,6.15
2022-09-26T05:33:09.320Z,6.18
2022-09-26T05:34:09.291Z,6.22
2022-09-26T05:35:09.298Z,6.27
2022-09-26T05:36:09.274Z,6.30
2022-09-26T05:37:09.299Z,6.34
2022-09-26T05:38:09.252Z,6.36
2022-09-26T05:39:09.266Z,6.40
2022-09-26T05:40:09.220Z,6.43
2022-09-26T05:41:09.240Z,6.46
2022-09-26T05:42:09.211Z,6.46
2022-09-26T05:43:09.201Z,6.49
2022-09-26T05:44:09.188Z,6.52
2022-09-26T05:45:09.187Z,6.54
2022-09-26T05:46:09.150Z,6.58
2022-09-26T05:47:09.314Z,6.59
2022-09-26T05:48:09.135Z,6.59
2022-09-26T05:49:09.168Z,6.64
2022-09-26T05:50:09.121Z,6.67
2022-09-26T05:51:10.027Z,6.69
2022-09-26T05:52:09.095Z,6.73
2022-09-26T05:53:09.090Z,6.76
2022-09-26T05:54:09.069Z,6.79
2022-09-26T05:55:09.102Z,6.80
2022-09-26T05:56:09.039Z,6.85
2022-09-26T05:57:09.040Z,6.89
2022-09-26T05:58:09.010Z,6.92
2022-09-26T05:59:09.068Z,6.95
2022-09-26T06:00:09.001Z,6.99
2022-09-26T06:01:09.013Z,7.03
2022-09-26T06:02:09.015Z,7.06
2022-09-26T06:03:08.969Z,7.06
2022-09-26T06:04:08.967Z,7.09
2022-09-26T06:05:08.929Z,7.15
2022-09-26T06:06:08.957Z,7.20
2022-09-26T06:07:08.909Z,7.24
2022-09-26T06:08:08.908Z,7.27
2022-09-26T06:09:08.893Z,7.31
2022-09-26T06:10:09.720Z,7.34
2022-09-26T06:11:09.618Z,7.39
2022-09-26T06:12:09.576Z,7.42
2022-09-26T06:13:08.847Z,7.43
2022-09-26T06:14:09.578Z,7.48
2022-09-26T06:15:08.818Z,7.50
2022-09-26T06:16:08.861Z,7.53
2022-09-26T06:17:08.788Z,7.58
2022-09-26T06:18:08.849Z,7.61
2022-09-26T06:19:08.828Z,7.67
2022-09-26T06:20:08.788Z,7.69
2022-09-26T06:21:09.693Z,7.75
2022-09-26T06:22:08.747Z,7.80
2022-09-26T06:23:08.727Z,7.83
2022-09-26T06:24:08.730Z,7.86
2022-09-26T06:25:08.728Z,7.89
2022-09-26T06:26:08.706Z,7.92
2022-09-26T06:27:08.678Z,7.93
2022-09-26T06:28:08.675Z,7.97
2022-09-26T06:29:08.746Z,8.01
2022-09-26T06:30:08.658Z,8.02
2022-09-26T06:31:08.667Z,8.05
2022-09-26T06:32:08.938Z,8.07
2022-09-26T06:33:08.617Z,8.08
2022-09-26T06:34:08.619Z,8.10
2022-09-26T06:35:08.587Z,8.11
2022-09-26T06:36:08.698Z,8.15
2022-09-26T06:37:08.567Z,8.16
2022-09-26T06:38:08.577Z,8.18
2022-09-26T06:39:08.563Z,8.19
2022-09-26T06:40:08.547Z,8.22
2022-09-26T06:41:08.517Z,8.22
2022-09-26T06:42:08.537Z,8.23
2022-09-26T06:43:08.497Z,8.25
2022-09-26T06:44:08.500Z,8.26
2022-09-26T06:45:08.597Z,8.29
2022-09-26T06:46:08.807Z,8.28
2022-09-26T06:47:08.490Z,8.28
2022-09-26T06:48:09.403Z,8.29
2022-09-26T06:49:08.449Z,8.34
2022-09-26T06:50:08.441Z,8.36
2022-09-26T06:51:08.426Z,8.37
2022-09-26T06:52:09.257Z,8.38
2022-09-26T06:53:09.175Z,8.40
2022-09-26T06:54:08.395Z,8.43
2022-09-26T06:55:08.377Z,8.45
2022-09-26T06:56:08.389Z,8.48
2022-09-26T06:57:12.835Z,8.52
2022-09-26T06:58:09.347Z,8.53
2022-09-26T06:59:08.317Z,8.55
2022-09-26T07:00:08.386Z,8.59
2022-09-26T07:01:08.420Z,8.61
2022-09-26T07:02:08.492Z,8.63
2022-09-26T07:03:08.341Z,8.70
2022-09-26T07:04:08.317Z,8.80
2022-09-26T07:05:08.266Z,8.84
2022-09-26T07:06:08.246Z,8.86
2022-09-26T07:07:08.246Z,8.86
2022-09-26T07:08:08.229Z,8.86
2022-09-26T07:09:12.579Z,8.87
2022-09-26T07:10:08.205Z,8.89
2022-09-26T07:11:31.280Z,8.91
2022-09-26T07:12:14.567Z,8.92
2022-09-26T07:13:09.176Z,8.95
2022-09-26T07:14:08.166Z,8.95
2022-09-26T07:15:08.146Z,8.99
2022-09-26T07:16:08.221Z,9.04
2022-09-26T07:17:08.220Z,9.15
2022-09-26T07:18:08.129Z,9.23
2022-09-26T07:19:08.186Z,9.24
2022-09-26T07:20:08.103Z,9.31
2022-09-26T07:21:08.074Z,9.35
2022-09-26T07:22:08.079Z,9.38
2022-09-26T07:23:08.045Z,9.39
2022-09-26T07:24:08.064Z,9.42
2022-09-26T07:25:08.015Z,9.43
2022-09-26T07:26:08.046Z,9.50
2022-09-26T07:27:08.005Z,9.54
2022-09-26T07:28:08.025Z,9.64
2022-09-26T07:29:07.974Z,9.71
2022-09-26T07:30:07.985Z,9.75
2022-09-26T07:31:08.086Z,9.76
2022-09-26T07:32:07.952Z,9.78
2022-09-26T07:33:08.166Z,9.83
2022-09-26T07:34:08.235Z,9.87
2022-09-26T07:35:07.917Z,9.91
2022-09-26T07:36:07.914Z,9.96
2022-09-26T07:37:07.891Z,9.94
2022-09-26T07:38:07.951Z,10.01
2022-09-26T07:39:07.864Z,10.07
2022-09-26T07:40:07.863Z,10.15
2022-09-26T07:41:07.846Z,10.26
2022-09-26T07:42:07.835Z,10.41
2022-09-26T07:43:19.610Z,10.45
2022-09-26T07:45:24.760Z,10.64
2022-09-26T07:46:08.858Z,10.71
2022-09-26T07:47:07.833Z,10.73
2022-09-26T07:48:07.790Z,10.79
2022-09-26T07:49:07.754Z,10.86
2022-09-26T07:50:07.753Z,10.91
2022-09-26T07:51:09.407Z,10.92
2022-09-26T07:52:07.723Z,11.02
2022-09-26T07:53:07.725Z,11.14
2022-09-26T07:54:08.432Z,11.27
2022-09-26T07:55:07.696Z,11.32
2022-09-26T07:56:07.695Z,11.29
2022-09-26T07:57:07.654Z,11.33
2022-09-26T07:58:07.661Z,11.37
2022-09-26T07:59:07.633Z,11.39
2022-09-26T08:00:07.635Z,11.40
2022-09-26T08:01:07.634Z,11.37
2022-09-26T08:02:07.776Z,11.36
2022-09-26T08:03:07.650Z,11.19
2022-09-26T08:04:07.592Z,11.11
2022-09-26T08:05:07.563Z,11.18
2022-09-26T08:06:07.577Z,11.24
2022-09-26T08:07:07.552Z,11.33
2022-09-26T08:08:07.563Z,11.42
2022-09-26T08:09:07.533Z,11.51
2022-09-26T08:10:07.531Z,11.61
2022-09-26T08:11:07.502Z,11.69
2022-09-26T08:12:07.514Z,11.76
2022-09-26T08:13:08.399Z,11.82
2022-09-26T08:14:08.315Z,11.95
2022-09-26T08:15:07.655Z,12.07
2022-09-26T08:16:08.414Z,12.14
2022-09-26T08:17:11.912Z,12.21
2022-09-26T08:18:09.197Z,12.32
2022-09-26T08:19:07.468Z,12.41
2022-09-26T08:20:07.423Z,12.38
2022-09-26T08:21:07.392Z,12.45
2022-09-26T08:22:08.294Z,12.56
2022-09-26T08:23:07.381Z,12.54
2022-09-26T08:24:07.384Z,12.70
2022-09-26T08:25:07.343Z,12.77
2022-09-26T08:26:07.352Z,12.87
2022-09-26T08:27:07.324Z,12.96
2022-09-26T08:28:07.331Z,13.07
2022-09-26T08:29:07.305Z,13.19
2022-09-26T08:30:07.302Z,13.25
2022-09-26T08:31:07.356Z,13.29
2022-09-26T08:32:07.276Z,13.08
2022-09-26T08:33:07.343Z,13.10
2022-09-26T08:34:07.262Z,13.10
2022-09-26T08:35:07.236Z,13.11
2022-09-26T08:36:07.232Z,13.14
2022-09-26T08:37:07.282Z,13.05
2022-09-26T08:38:07.213Z,13.12
2022-09-26T08:39:07.263Z,13.22
2022-09-26T08:40:07.183Z,13.36
2022-09-26T08:41:07.427Z,13.46
2022-09-26T08:42:07.163Z,13.52
2022-09-26T08:43:07.180Z,13.57
2022-09-26T08:44:07.175Z,13.62
2022-09-26T08:45:07.105Z,13.67
2022-09-26T08:46:07.140Z,13.75
2022-09-26T08:47:07.104Z,13.78
2022-09-26T08:48:07.113Z,13.67
2022-09-26T08:49:07.066Z,13.55
2022-09-26T08:50:07.072Z,13.44
2022-09-26T08:51:07.068Z,13.38
2022-09-26T08:52:07.405Z,13.28
2022-09-26T08:53:07.127Z,13.26
2022-09-26T08:54:07.141Z,13.28
2022-09-26T08:55:07.725Z,13.19
2022-09-26T08:56:07.006Z,13.11
2022-09-26T08:57:06.970Z,13.12
2022-09-26T08:58:06.985Z,13.11
2022-09-26T08:59:06.944Z,13.12
2022-09-26T09:00:06.954Z,13.17
2022-09-26T09:01:06.923Z,13.20
2022-09-26T09:02:07.012Z,13.23
2022-09-26T09:03:06.986Z,13.26
2022-09-26T09:04:06.990Z,13.25
2022-09-26T09:05:06.880Z,13.22
2022-09-26T09:06:06.882Z,13.22
2022-09-26T09:07:06.852Z,13.11
2022-09-26T09:08:06.852Z,13.08
2022-09-26T09:09:06.822Z,13.19
2022-09-26T09:10:06.830Z,13.25
2022-09-26T09:11:06.804Z,13.36
2022-09-26T09:12:06.809Z,13.45
2022-09-26T09:13:06.783Z,13.48
2022-09-26T09:14:06.838Z,13.51
2022-09-26T09:15:25.866Z,13.54
2022-09-26T09:16:08.172Z,13.49
2022-09-26T09:17:06.734Z,13.46
2022-09-26T09:18:09.989Z,13.45
2022-09-26T09:19:07.712Z,13.46
2022-09-26T09:20:06.715Z,13.42
2022-09-26T09:21:06.687Z,13.39
2022-09-26T09:22:06.692Z,13.45
2022-09-26T09:23:06.663Z,13.39
2022-09-26T09:24:06.775Z,13.45
2022-09-26T09:25:06.643Z,13.41
2022-09-26T09:28:08.769Z,13.49
2022-09-26T09:29:10.376Z,13.54
2022-09-26T09:30:15.812Z,13.60
2022-09-26T09:31:07.624Z,13.62
2022-09-26T09:32:06.574Z,13.60
2022-09-26T09:33:06.573Z,13.60
2022-09-26T09:34:06.632Z,13.46
2022-09-26T09:35:06.530Z,13.36
2022-09-26T09:36:07.028Z,13.38
2022-09-26T09:37:06.503Z,13.32
2022-09-26T09:38:06.508Z,13.29
2022-09-26T09:39:06.484Z,13.29
2022-09-26T09:40:06.489Z,13.29
2022-09-26T09:41:06.513Z,13.29
2022-09-26T09:42:06.464Z,13.23
2022-09-26T09:43:06.424Z,13.12
2022-09-26T09:44:06.528Z,13.01
2022-09-26T09:45:06.403Z,12.85
2022-09-26T09:46:06.467Z,12.77
2022-09-26T09:47:06.401Z,12.75
2022-09-26T09:48:06.383Z,12.71
2022-09-26T09:49:06.395Z,12.71
2022-09-26T09:50:06.380Z,12.70
2022-09-26T09:51:06.339Z,12.67
2022-09-26T09:52:06.343Z,12.65
2022-09-26T09:53:06.366Z,12.60
2022-09-26T09:54:06.341Z,12.62
2022-09-26T09:55:06.303Z,12.65
2022-09-26T09:56:07.213Z,12.68
2022-09-26T09:57:06.296Z,12.68
2022-09-26T09:58:06.271Z,12.67
2022-09-26T09:59:06.242Z,12.67
2022-09-26T10:00:06.243Z,12.62
2022-09-26T10:01:06.213Z,12.67
2022-09-26T10:02:06.221Z,12.68
2022-09-26T10:03:06.292Z,12.70
2022-09-26T10:04:06.253Z,12.72
2022-09-26T10:05:06.185Z,12.72
2022-09-26T10:06:08.591Z,12.71
2022-09-26T10:07:07.151Z,12.67
2022-09-26T10:08:06.156Z,12.68
2022-09-26T10:09:35.260Z,12.65
2022-09-26T10:10:07.132Z,12.67
2022-09-26T10:11:06.112Z,12.70
2022-09-26T10:12:06.113Z,12.75
2022-09-26T10:13:06.084Z,12.83
2022-09-26T10:14:06.115Z,12.83
2022-09-26T10:15:06.072Z,12.83
2022-09-26T10:16:06.118Z,12.82
2022-09-26T10:17:06.767Z,12.89
2022-09-26T10:18:24.086Z,12.93
2022-09-26T10:19:07.042Z,13.01
2022-09-26T10:20:06.033Z,13.10
2022-09-26T10:21:06.013Z,13.15
2022-09-26T10:22:05.994Z,13.20
2022-09-26T10:23:05.994Z,13.26
2022-09-26T10:24:05.975Z,13.28
2022-09-26T10:25:05.983Z,13.36
2022-09-26T10:26:05.945Z,13.36
2022-09-26T10:27:05.943Z,13.23
2022-09-26T10:28:06.705Z,13.19
2022-09-26T10:29:13.154Z,13.14
2022-09-26T10:30:05.896Z,13.05
2022-09-26T10:31:05.940Z,12.96
2022-09-26T10:32:05.876Z,12.97
2022-09-26T10:33:05.884Z,13.00
2022-09-26T10:34:05.918Z,13.01
2022-09-26T10:35:05.856Z,13.05
2022-09-26T10:36:05.826Z,13.10
2022-09-26T10:37:05.835Z,13.08
2022-09-26T10:38:06.537Z,13.14
2022-09-26T10:39:06.707Z,13.17
2022-09-26T10:40:05.809Z,13.12
2022-09-26T10:41:05.883Z,13.11
2022-09-26T10:42:05.766Z,13.11
2022-09-26T10:43:05.768Z,13.15
2022-09-26T10:44:05.845Z,13.20
2022-09-26T10:45:05.798Z,13.23
2022-09-26T10:46:05.803Z,13.32
2022-09-26T10:47:05.716Z,13.25
2022-09-26T10:48:05.707Z,13.14
2022-09-26T10:49:05.696Z,13.07
2022-09-26T10:50:05.727Z,13.11
2022-09-26T10:51:05.679Z,13.00
2022-09-26T10:52:05.647Z,12.90
2022-09-26T10:53:05.654Z,12.85
2022-09-26T10:54:05.628Z,12.89
2022-09-26T10:55:05.634Z,12.95
2022-09-26T10:56:06.447Z,13.01
2022-09-26T10:57:05.636Z,12.97
2022-09-26T10:58:11.399Z,12.95
2022-09-26T10:59:06.657Z,12.93
2022-09-26T11:00:05.557Z,12.95
2022-09-26T11:01:05.578Z,12.90
2022-09-26T11:02:05.595Z,12.90
2022-09-26T11:03:05.545Z,12.86
2022-09-26T11:04:05.588Z,12.78
2022-09-26T11:05:05.517Z,12.67
2022-09-26T11:06:05.506Z,12.65
2022-09-26T11:07:05.505Z,12.67
2022-09-26T11:08:05.470Z,12.64
2022-09-26T11:09:05.474Z,12.53
2022-09-26T11:10:05.446Z,12.53
2022-09-26T11:11:05.445Z,12.52
2022-09-26T11:12:05.555Z,12.49
2022-09-26T11:13:05.446Z,12.38
2022-09-26T11:14:05.405Z,12.31
2022-09-26T11:15:05.406Z,12.28
2022-09-26T11:16:05.432Z,12.28
2022-09-26T11:17:05.413Z,12.27
2022-09-26T11:18:06.255Z,12.27
2022-09-26T11:19:06.213Z,12.27
2022-09-26T11:20:05.346Z,12.28
2022-09-26T11:21:14.339Z,12.28
2022-09-26T11:22:08.389Z,12.31
2022-09-26T11:23:05.337Z,12.28
2022-09-26T11:24:05.305Z,12.34
2022-09-26T11:25:05.295Z,12.37
2022-09-26T11:26:05.275Z,12.38
2022-09-26T11:27:05.288Z,12.39
2022-09-26T11:28:05.255Z,12.38
2022-09-26T11:29:05.247Z,12.38
2022-09-26T11:30:05.262Z,12.41
2022-09-26T11:31:05.411Z,12.39
2022-09-26T11:32:05.206Z,12.38
2022-09-26T11:33:05.206Z,12.41
2022-09-26T11:34:05.199Z,12.45
2022-09-26T11:35:05.193Z,12.37
2022-09-26T11:36:05.163Z,12.35
2022-09-26T11:37:05.176Z,12.31
2022-09-26T11:38:05.167Z,12.28
2022-09-26T11:39:06.066Z,12.38
2022-09-26T11:40:09.549Z,12.39
2022-09-26T11:41:05.149Z,12.32
2022-09-26T11:42:05.095Z,12.35
2022-09-26T11:43:05.095Z,12.34
2022-09-26T11:44:05.104Z,12.21
2022-09-26T11:45:05.156Z,12.24
2022-09-26T11:46:05.114Z,12.32
2022-09-26T11:47:05.050Z,12.35
2022-09-26T11:48:05.026Z,12.42
2022-09-26T11:49:05.036Z,12.47
2022-09-26T11:50:05.050Z,12.52
2022-09-26T11:51:05.067Z,12.56
2022-09-26T11:52:05.005Z,12.56
2022-09-26T11:53:04.986Z,12.60
2022-09-26T11:54:04.976Z,12.64
2022-09-26T11:55:04.987Z,12.72
2022-09-26T11:56:05.201Z,12.75
2022-09-26T11:57:04.947Z,12.77
2022-09-26T11:58:05.006Z,12.75
2022-09-26T11:59:05.645Z,12.72
2022-09-26T12:00:05.811Z,12.72
2022-09-26T12:01:04.910Z,12.71
2022-09-26T12:02:04.877Z,12.67
2022-09-26T12:03:05.011Z,12.59
2022-09-26T12:04:04.986Z,12.50
2022-09-26T12:05:04.865Z,12.45
2022-09-26T12:06:04.864Z,12.34
2022-09-26T12:07:04.836Z,12.28
2022-09-26T12:08:04.815Z,12.23
2022-09-26T12:09:04.820Z,12.14
2022-09-26T12:10:04.814Z,12.13
2022-09-26T12:11:04.796Z,12.05
2022-09-26T12:12:04.773Z,11.98
2022-09-26T12:13:04.777Z,11.91
2022-09-26T12:14:04.757Z,11.90
2022-09-26T12:15:04.758Z,11.79
2022-09-26T12:16:04.788Z,11.70
2022-09-26T12:17:04.724Z,11.61
2022-09-26T12:18:05.260Z,11.52
2022-09-26T12:19:05.524Z,11.51
2022-09-26T12:20:04.686Z,11.51
2022-09-26T12:21:04.676Z,11.42
2022-09-26T12:22:04.663Z,11.46
2022-09-26T12:23:04.875Z,11.51
2022-09-26T12:24:04.636Z,11.55
2022-09-26T12:25:04.667Z,11.58
2022-09-26T12:26:04.985Z,11.61
2022-09-26T12:27:04.616Z,11.65
2022-09-26T12:28:04.586Z,11.72
2022-09-26T12:29:04.588Z,11.75
2022-09-26T12:30:04.566Z,11.70
2022-09-26T12:31:04.590Z,11.70
2022-09-26T12:32:04.586Z,11.62
2022-09-26T12:33:04.545Z,11.58
2022-09-26T12:34:04.635Z,11.61
2022-09-26T12:35:05.156Z,11.67
2022-09-26T12:36:04.496Z,11.72
2022-09-26T12:37:04.505Z,11.73
2022-09-26T12:38:04.505Z,11.73
2022-09-26T12:39:04.495Z,11.75
2022-09-26T12:40:04.494Z,11.79
2022-09-26T12:41:05.232Z,11.85
2022-09-26T12:42:04.474Z,11.95
2022-09-26T12:43:04.438Z,12.02
2022-09-26T12:44:04.426Z,12.10
2022-09-26T12:45:05.336Z,12.12
2022-09-26T12:46:04.458Z,12.16
2022-09-26T12:47:04.398Z,12.20
2022-09-26T12:48:04.378Z,12.27
2022-09-26T12:49:04.365Z,12.29
2022-09-26T12:50:04.337Z,12.28
2022-09-26T12:51:05.269Z,12.29
2022-09-26T12:52:04.347Z,12.34
2022-09-26T12:53:04.326Z,12.37
2022-09-26T12:54:05.004Z,12.37
2022-09-26T12:55:04.313Z,12.32
2022-09-26T12:56:04.278Z,12.31
2022-09-26T12:57:04.314Z,12.31
2022-09-26T12:58:04.256Z,12.35
2022-09-26T12:59:04.255Z,12.41
2022-09-26T13:00:04.246Z,12.52
2022-09-26T13:01:04.254Z,12.60
2022-09-26T13:02:04.292Z,12.67
2022-09-26T13:03:04.293Z,12.71
2022-09-26T13:04:04.308Z,12.74
2022-09-26T13:05:04.199Z,12.86
2022-09-26T13:06:08.439Z,13.00
2022-09-26T13:07:20.459Z,13.10
2022-09-26T13:08:05.146Z,13.23
2022-09-26T13:09:04.364Z,13.30
2022-09-26T13:10:04.193Z,13.25